createdAt,value
2018-10-18T00:00:37.351Z,32.30
2018-10-18T00:01:37.274Z,32.20
2018-10-18T00:02:37.233Z,31.70
2018-10-18T00:03:37.235Z,32.50
2018-10-18T00:04:37.209Z,30.90
2018-10-18T00:05:37.198Z,30.60
2018-10-18T00:06:37.237Z,31.90
2018-10-18T00:07:37.182Z,30.40
2018-10-18T00:08:37.176Z,31.50
2018-10-18T00:09:37.166Z,30.50
2018-10-18T00:10:37.149Z,31.10
2018-10-18T00:11:37.171Z,30.40
2018-10-18T00:12:37.153Z,29.60
2018-10-18T00:13:37.111Z,29.30
2018-10-18T00:14:37.100Z,30.60
2018-10-18T00:15:37.089Z,30.40
2018-10-18T00:16:37.075Z,30.60
2018-10-18T00:17:37.105Z,30.10
2018-10-18T00:18:37.055Z,29.70
2018-10-18T00:19:37.043Z,29.70
2018-10-18T00:20:37.046Z,30.40
2018-10-18T00:21:37.056Z,29.70
2018-10-18T00:22:37.048Z,30.40
2018-10-18T00:23:37.072Z,29.00
2018-10-18T00:24:36.991Z,28.60
2018-10-18T00:25:36.982Z,30.10
2018-10-18T00:26:36.970Z,29.80
2018-10-18T00:27:37.000Z,30.30
2018-10-18T00:28:36.946Z,29.50
2018-10-18T00:29:36.935Z,29.90
2018-10-18T00:30:36.923Z,30.60
2018-10-18T00:31:36.914Z,28.90
2018-10-18T00:32:36.981Z,29.60
2018-10-18T00:33:36.892Z,29.30
2018-10-18T00:34:36.888Z,28.50
2018-10-18T00:35:36.872Z,28.80
2018-10-18T00:36:36.877Z,29.10
2018-10-18T00:37:36.889Z,28.40
2018-10-18T00:38:36.837Z,29.20
2018-10-18T00:39:36.846Z,28.90
2018-10-18T00:40:36.820Z,28.40
2018-10-18T00:41:36.832Z,30.00
2018-10-18T00:42:36.800Z,29.30
2018-10-18T00:43:36.817Z,29.30
2018-10-18T00:44:36.803Z,29.50
2018-10-18T00:45:36.764Z,28.80
2018-10-18T00:46:36.753Z,29.00
2018-10-18T00:47:36.769Z,29.30
2018-10-18T00:48:36.768Z,28.80
2018-10-18T00:49:36.716Z,30.20
2018-10-18T00:50:36.711Z,30.40
2018-10-18T00:51:36.719Z,29.70
2018-10-18T00:52:36.694Z,29.10
2018-10-18T00:53:36.679Z,30.40
2018-10-18T00:54:36.697Z,29.50
2018-10-18T00:55:36.677Z,30.20
2018-10-18T00:56:36.653Z,30.60
2018-10-18T00:57:36.630Z,29.50
2018-10-18T00:58:36.623Z,29.40
2018-10-18T00:59:36.644Z,29.50
2018-10-18T01:00:36.629Z,29.90
2018-10-18T01:01:36.583Z,29.80
2018-10-18T01:02:36.573Z,29.70
2018-10-18T01:03:36.571Z,28.60
2018-10-18T01:04:36.596Z,30.10
2018-10-18T01:05:36.548Z,29.20
2018-10-18T01:06:36.575Z,29.70
2018-10-18T01:07:36.554Z,29.50
2018-10-18T01:08:36.511Z,29.40
2018-10-18T01:09:36.516Z,29.00
2018-10-18T01:10:36.540Z,29.00
2018-10-18T01:11:36.477Z,30.50
2018-10-18T01:12:36.496Z,29.30
2018-10-18T01:13:36.455Z,28.70
2018-10-18T01:14:36.443Z,30.60
2018-10-18T01:15:36.473Z,28.70
2018-10-18T01:16:36.423Z,29.90
2018-10-18T01:17:36.409Z,29.10
2018-10-18T01:18:36.428Z,29.80
2018-10-18T01:19:36.396Z,29.80
2018-10-18T01:20:36.380Z,29.00
2018-10-18T01:21:36.371Z,30.40
2018-10-18T01:22:36.368Z,30.30
2018-10-18T01:23:36.402Z,29.50
2018-10-18T01:24:36.335Z,29.90
2018-10-18T01:25:36.322Z,30.70
2018-10-18T01:26:36.314Z,30.70
2018-10-18T01:27:36.340Z,30.60
2018-10-18T01:28:36.284Z,29.70
2018-10-18T01:29:36.275Z,30.10
2018-10-18T01:30:36.270Z,29.90
2018-10-18T01:31:36.253Z,30.00
2018-10-18T01:32:36.282Z,30.40
2018-10-18T01:33:36.231Z,30.30
2018-10-18T01:34:36.219Z,30.10
2018-10-18T01:35:36.212Z,30.70
2018-10-18T01:36:36.231Z,31.00
2018-10-18T01:37:36.183Z,31.50
2018-10-18T01:38:36.176Z,31.40
2018-10-18T01:39:36.170Z,30.40
2018-10-18T01:40:36.185Z,31.60
2018-10-18T01:41:36.145Z,31.90
2018-10-18T01:42:36.132Z,31.00
2018-10-18T01:43:36.124Z,32.50
2018-10-18T01:44:36.135Z,32.00
2018-10-18T01:45:36.124Z,32.00
2018-10-18T01:46:36.086Z,31.60
2018-10-18T01:47:36.079Z,32.00
2018-10-18T01:48:36.100Z,31.40
2018-10-18T01:49:36.066Z,32.30
2018-10-18T01:50:36.046Z,31.70
2018-10-18T01:51:36.041Z,30.80
2018-10-18T01:52:36.023Z,32.20
2018-10-18T01:53:36.043Z,31.40
2018-10-18T01:54:35.995Z,31.10
2018-10-18T01:55:35.988Z,31.50
2018-10-18T01:56:35.999Z,30.90
2018-10-18T01:57:35.998Z,30.30
2018-10-18T01:58:35.955Z,30.40
2018-10-18T01:59:35.947Z,29.90
2018-10-18T02:00:35.933Z,30.50
2018-10-18T02:01:35.948Z,31.30
2018-10-18T02:02:35.921Z,30.50
2018-10-18T02:03:35.972Z,32.00
2018-10-18T02:04:35.913Z,31.90
2018-10-18T02:05:35.882Z,31.80
2018-10-18T02:06:35.900Z,30.70
2018-10-18T02:07:35.858Z,31.20
2018-10-18T02:08:35.878Z,30.20
2018-10-18T02:09:35.867Z,29.90
2018-10-18T02:10:35.820Z,30.00
2018-10-18T02:11:35.813Z,31.70
2018-10-18T02:12:35.809Z,31.00
2018-10-18T02:13:35.904Z,31.10
2018-10-18T02:14:35.783Z,30.10
2018-10-18T02:15:35.769Z,31.70
2018-10-18T02:16:35.756Z,30.90
2018-10-18T02:17:35.781Z,31.00
2018-10-18T02:18:35.740Z,29.80
2018-10-18T02:19:35.740Z,30.80
2018-10-18T02:20:35.719Z,30.80
2018-10-18T02:21:35.729Z,29.80
2018-10-18T02:22:35.691Z,30.50
2018-10-18T02:23:35.679Z,32.20
2018-10-18T02:24:35.679Z,31.30
2018-10-18T02:25:35.656Z,31.40
2018-10-18T02:26:35.675Z,30.60
2018-10-18T02:27:35.636Z,31.00
2018-10-18T02:28:35.627Z,31.60
2018-10-18T02:29:35.653Z,30.50
2018-10-18T02:30:35.616Z,29.80
2018-10-18T02:31:35.590Z,31.00
2018-10-18T02:32:35.615Z,30.00
2018-10-18T02:33:35.611Z,30.20
2018-10-18T02:34:35.563Z,30.20
2018-10-18T02:35:35.607Z,30.30
2018-10-18T02:36:35.533Z,29.00
2018-10-18T02:37:35.528Z,29.50
2018-10-18T02:38:35.543Z,29.20
2018-10-18T02:39:35.504Z,28.60
2018-10-18T02:40:35.491Z,28.50
2018-10-18T02:41:35.488Z,28.40
2018-10-18T02:42:35.493Z,27.90
2018-10-18T02:43:35.498Z,28.30
2018-10-18T02:44:35.449Z,28.30
2018-10-18T02:45:35.444Z,28.50
2018-10-18T02:46:35.452Z,27.90
2018-10-18T02:47:35.417Z,28.20
2018-10-18T02:48:35.442Z,27.60
2018-10-18T02:49:35.399Z,28.40
2018-10-18T02:50:35.380Z,28.20
2018-10-18T02:51:35.371Z,28.10
2018-10-18T02:52:35.394Z,28.20
2018-10-18T02:53:35.373Z,27.90
2018-10-18T02:54:35.342Z,28.10
2018-10-18T02:55:35.334Z,27.20
2018-10-18T02:56:35.321Z,27.30
2018-10-18T02:57:35.339Z,27.40
2018-10-18T02:58:35.294Z,27.30
2018-10-18T02:59:35.296Z,26.90
2018-10-18T03:00:35.275Z,26.20
2018-10-18T03:01:35.296Z,27.10
2018-10-18T03:02:35.252Z,28.40
2018-10-18T03:03:35.243Z,26.80
2018-10-18T03:04:35.234Z,28.10
2018-10-18T03:05:35.218Z,27.50
2018-10-18T03:06:35.245Z,27.50
2018-10-18T03:07:35.231Z,28.20
2018-10-18T03:08:35.195Z,28.60
2018-10-18T03:09:35.218Z,28.30
2018-10-18T03:10:35.165Z,28.60
2018-10-18T03:11:35.193Z,27.80
2018-10-18T03:12:35.140Z,28.40
2018-10-18T03:13:35.160Z,28.50
2018-10-18T03:14:35.125Z,27.70
2018-10-18T03:15:35.130Z,28.30
2018-10-18T03:16:35.126Z,28.50
2018-10-18T03:17:35.088Z,28.70
2018-10-18T03:18:35.112Z,28.80
2018-10-18T03:19:35.071Z,28.30
2018-10-18T03:20:35.058Z,27.60
2018-10-18T03:21:35.047Z,28.50
2018-10-18T03:22:35.063Z,29.10
2018-10-18T03:23:35.027Z,27.70
2018-10-18T03:24:35.010Z,27.40
2018-10-18T03:25:34.998Z,27.50
2018-10-18T03:26:34.987Z,27.20
2018-10-18T03:27:35.007Z,27.50
2018-10-18T03:28:34.970Z,28.10
2018-10-18T03:29:34.957Z,27.30
2018-10-18T03:30:34.947Z,27.90
2018-10-18T03:31:34.950Z,27.40
2018-10-18T03:32:34.949Z,28.90
2018-10-18T03:33:34.908Z,28.30
2018-10-18T03:34:34.899Z,28.10
2018-10-18T03:35:34.894Z,27.50
2018-10-18T03:36:34.906Z,27.50
2018-10-18T03:37:34.867Z,25.90
2018-10-18T03:38:34.856Z,28.10
2018-10-18T03:39:34.903Z,27.10
2018-10-18T03:40:34.866Z,28.40
2018-10-18T03:41:34.901Z,27.50
2018-10-18T03:42:34.864Z,26.80
2018-10-18T03:43:34.811Z,27.00
2018-10-18T03:44:34.792Z,27.40
2018-10-18T03:45:34.812Z,27.30
2018-10-18T03:46:34.802Z,26.50
2018-10-18T03:47:34.756Z,27.10
2018-10-18T03:48:34.746Z,26.30
2018-10-18T03:49:34.738Z,26.20
2018-10-18T03:50:34.763Z,26.90
2018-10-18T03:51:34.752Z,26.80
2018-10-18T03:52:34.737Z,26.60
2018-10-18T03:53:34.723Z,27.60
2018-10-18T03:54:34.688Z,27.20
2018-10-18T03:55:34.677Z,26.00
2018-10-18T03:56:34.660Z,27.10
2018-10-18T03:57:34.646Z,26.60
2018-10-18T03:58:34.668Z,27.20
2018-10-18T03:59:34.681Z,26.70
2018-10-18T04:00:34.619Z,78.90
2018-10-18T04:01:34.633Z,89.10
2018-10-18T04:02:34.596Z,109.60
2018-10-18T04:03:34.584Z,54.10
2018-10-18T04:04:34.574Z,42.20
2018-10-18T04:05:34.593Z,27.60
2018-10-18T04:06:34.550Z,27.10
2018-10-18T04:07:34.543Z,28.00
2018-10-18T04:08:34.549Z,27.80
2018-10-18T04:09:34.521Z,27.60
2018-10-18T04:10:34.553Z,27.30
2018-10-18T04:11:34.502Z,26.50
2018-10-18T04:12:34.512Z,27.20
2018-10-18T04:13:34.476Z,27.10
2018-10-18T04:14:34.517Z,26.70
2018-10-18T04:15:34.455Z,26.80
2018-10-18T04:16:34.447Z,26.40
2018-10-18T04:17:34.431Z,26.10
2018-10-18T04:18:34.530Z,26.30
2018-10-18T04:19:34.508Z,26.30
2018-10-18T04:20:34.401Z,26.20
2018-10-18T04:21:34.418Z,26.40
2018-10-18T04:22:34.410Z,26.40
2018-10-18T04:23:34.372Z,26.90
2018-10-18T04:24:34.353Z,25.20
2018-10-18T04:25:34.434Z,25.60
2018-10-18T04:26:34.372Z,26.30
2018-10-18T04:27:34.323Z,26.10
2018-10-18T04:28:34.321Z,25.60
2018-10-18T04:29:34.307Z,25.90
2018-10-18T04:30:34.327Z,25.60
2018-10-18T04:31:34.287Z,26.40
2018-10-18T04:32:34.274Z,26.30
2018-10-18T04:33:34.256Z,27.20
2018-10-18T04:34:34.254Z,25.40
2018-10-18T04:35:34.265Z,53.10
2018-10-18T04:36:34.224Z,51.70
2018-10-18T04:37:34.333Z,39.60
2018-10-18T04:38:34.218Z,27.60
2018-10-18T04:39:34.222Z,29.80
2018-10-18T04:40:34.205Z,25.80
2018-10-18T04:41:34.173Z,26.60
2018-10-18T04:42:34.157Z,24.80
2018-10-18T04:43:34.187Z,25.50
2018-10-18T04:44:34.163Z,26.60
2018-10-18T04:45:34.126Z,25.30
2018-10-18T04:46:34.142Z,25.60
2018-10-18T04:47:34.146Z,25.50
2018-10-18T04:48:34.349Z,26.30
2018-10-18T04:49:34.086Z,25.70
2018-10-18T04:50:34.077Z,25.50
2018-10-18T04:51:34.094Z,26.40
2018-10-18T04:52:34.056Z,25.90
2018-10-18T04:53:34.039Z,25.60
2018-10-18T04:54:34.115Z,25.90
2018-10-18T04:55:34.049Z,25.20
2018-10-18T04:56:34.065Z,26.20
2018-10-18T04:57:33.998Z,25.20
2018-10-18T04:58:33.985Z,25.00
2018-10-18T04:59:34.009Z,26.80
2018-10-18T05:00:33.974Z,44.20
2018-10-18T05:01:34.022Z,31.30
2018-10-18T05:02:34.037Z,36.90
2018-10-18T05:03:33.935Z,27.90
2018-10-18T05:04:33.925Z,27.50
2018-10-18T05:05:33.916Z,24.80
2018-10-18T05:06:33.902Z,26.20
2018-10-18T05:07:33.921Z,26.10
2018-10-18T05:08:33.878Z,25.10
2018-10-18T05:09:33.902Z,25.10
2018-10-18T05:10:33.886Z,24.80
2018-10-18T05:11:33.844Z,26.00
2018-10-18T05:12:33.875Z,26.30
2018-10-18T05:13:33.822Z,26.20
2018-10-18T05:14:33.811Z,25.90
2018-10-18T05:15:33.859Z,24.90
2018-10-18T05:16:33.819Z,25.30
2018-10-18T05:17:33.793Z,24.80
2018-10-18T05:18:33.789Z,24.80
2018-10-18T05:19:33.752Z,25.30
2018-10-18T05:20:33.751Z,25.90
2018-10-18T05:21:33.762Z,25.80
2018-10-18T05:22:33.726Z,25.20
2018-10-18T05:23:33.717Z,23.80
2018-10-18T05:24:33.699Z,24.70
2018-10-18T05:25:33.764Z,25.00
2018-10-18T05:26:33.719Z,26.00
2018-10-18T05:27:33.675Z,25.20
2018-10-18T05:28:33.658Z,24.90
2018-10-18T05:29:33.643Z,25.50
2018-10-18T05:30:33.633Z,24.90
2018-10-18T05:31:33.690Z,54.60
2018-10-18T05:32:33.615Z,34.60
2018-10-18T05:33:33.607Z,40.10
2018-10-18T05:34:33.623Z,30.30
2018-10-18T05:35:33.583Z,27.50
2018-10-18T05:36:33.603Z,26.20
2018-10-18T05:37:33.640Z,26.70
2018-10-18T05:38:33.580Z,25.10
2018-10-18T05:39:33.538Z,24.70
2018-10-18T05:40:33.556Z,25.30
2018-10-18T05:41:33.525Z,25.70
2018-10-18T05:42:33.537Z,25.30
2018-10-18T05:43:33.491Z,25.20
2018-10-18T05:44:33.483Z,25.10
2018-10-18T05:45:33.514Z,25.60
2018-10-18T05:46:33.466Z,24.70
2018-10-18T05:47:33.447Z,23.90
2018-10-18T05:48:33.435Z,24.90
2018-10-18T05:49:33.451Z,25.80
2018-10-18T05:50:33.413Z,24.90
2018-10-18T05:51:33.404Z,24.40
2018-10-18T05:52:33.421Z,24.80
2018-10-18T05:53:33.504Z,23.90
2018-10-18T05:54:33.393Z,24.50
2018-10-18T05:55:33.359Z,23.70
2018-10-18T05:56:33.351Z,23.90
2018-10-18T05:57:33.373Z,22.90
2018-10-18T05:58:33.332Z,24.10
2018-10-18T05:59:33.346Z,24.40
2018-10-18T06:00:33.339Z,23.60
2018-10-18T06:01:33.294Z,24.00
2018-10-18T06:02:33.287Z,23.90
2018-10-18T06:03:33.281Z,22.70
2018-10-18T06:04:33.265Z,23.30
2018-10-18T06:05:33.291Z,24.40
2018-10-18T06:06:33.258Z,34.40
2018-10-18T06:07:33.229Z,25.10
2018-10-18T06:08:33.217Z,23.30
2018-10-18T06:09:33.252Z,22.50
2018-10-18T06:10:33.319Z,23.20
2018-10-18T06:11:33.226Z,22.60
2018-10-18T06:12:33.202Z,22.80
2018-10-18T06:13:33.170Z,22.80
2018-10-18T06:14:33.173Z,22.20
2018-10-18T06:15:33.181Z,23.00
2018-10-18T06:16:33.132Z,21.30
2018-10-18T06:17:33.156Z,22.30
2018-10-18T06:18:33.111Z,23.10
2018-10-18T06:19:33.099Z,22.50
2018-10-18T06:20:33.093Z,22.80
2018-10-18T06:21:33.111Z,24.40
2018-10-18T06:22:33.127Z,22.60
2018-10-18T06:23:33.066Z,23.30
2018-10-18T06:24:33.048Z,23.50
2018-10-18T06:25:33.039Z,77.30
2018-10-18T06:26:33.078Z,37.00
2018-10-18T06:27:33.013Z,40.40
2018-10-18T06:28:33.004Z,24.40
2018-10-18T06:29:33.000Z,22.40
2018-10-18T06:30:33.044Z,22.80
2018-10-18T06:31:33.026Z,22.40
2018-10-18T06:32:32.958Z,23.90
2018-10-18T06:33:32.970Z,23.20
2018-10-18T06:34:32.948Z,23.90
2018-10-18T06:35:32.927Z,22.70
2018-10-18T06:36:32.963Z,23.90
2018-10-18T06:37:32.924Z,23.40
2018-10-18T06:38:32.894Z,23.80
2018-10-18T06:39:32.883Z,22.50
2018-10-18T06:40:32.877Z,23.80
2018-10-18T06:41:32.897Z,23.20
2018-10-18T06:42:32.852Z,22.60
2018-10-18T06:43:32.840Z,23.60
2018-10-18T06:44:32.836Z,22.80
2018-10-18T06:45:32.829Z,23.80
2018-10-18T06:46:32.847Z,23.80
2018-10-18T06:47:32.885Z,22.80
2018-10-18T06:48:32.783Z,23.70
2018-10-18T06:49:32.859Z,23.60
2018-10-18T06:50:32.768Z,23.80
2018-10-18T06:51:32.800Z,23.50
2018-10-18T06:52:32.753Z,24.50
2018-10-18T06:53:32.732Z,23.20
2018-10-18T06:54:32.805Z,24.40
2018-10-18T06:55:32.716Z,22.80
2018-10-18T06:56:32.735Z,23.70
2018-10-18T06:57:32.764Z,22.90
2018-10-18T06:58:32.895Z,22.10
2018-10-18T06:59:32.701Z,22.00
2018-10-18T07:00:32.705Z,23.10
2018-10-18T07:01:32.644Z,22.70
2018-10-18T07:02:32.662Z,22.20
2018-10-18T07:03:32.665Z,23.50
2018-10-18T07:04:32.615Z,23.20
2018-10-18T07:05:32.602Z,22.40
2018-10-18T07:06:32.589Z,22.00
2018-10-18T07:07:32.666Z,22.40
2018-10-18T07:08:32.626Z,21.60
2018-10-18T07:09:32.554Z,22.50
2018-10-18T07:10:32.610Z,21.70
2018-10-18T07:11:32.537Z,22.20
2018-10-18T07:12:32.520Z,22.20
2018-10-18T07:13:32.546Z,22.30
2018-10-18T07:14:32.534Z,22.60
2018-10-18T07:15:32.500Z,24.30
2018-10-18T07:16:32.485Z,30.10
2018-10-18T07:17:32.533Z,29.90
2018-10-18T07:18:32.456Z,37.20
2018-10-18T07:19:32.444Z,29.30
2018-10-18T07:20:32.472Z,23.40
2018-10-18T07:21:32.424Z,24.20
2018-10-18T07:22:32.412Z,21.60
2018-10-18T07:23:32.397Z,21.10
2018-10-18T07:24:32.417Z,20.80
2018-10-18T07:25:32.379Z,20.20
2018-10-18T07:26:32.444Z,19.80
2018-10-18T07:27:32.383Z,21.50
2018-10-18T07:28:32.348Z,20.70
2018-10-18T07:29:32.363Z,21.50
2018-10-18T07:30:32.349Z,20.30
2018-10-18T07:31:32.304Z,20.60
2018-10-18T07:32:32.300Z,20.50
2018-10-18T07:33:32.293Z,19.90
2018-10-18T07:34:32.369Z,19.90
2018-10-18T07:35:32.309Z,19.70
2018-10-18T07:36:32.253Z,18.50
2018-10-18T07:37:32.240Z,19.30
2018-10-18T07:38:32.233Z,19.20
2018-10-18T07:39:32.256Z,19.00
2018-10-18T07:40:32.212Z,17.80
2018-10-18T07:41:32.207Z,17.90
2018-10-18T07:42:32.221Z,18.60
2018-10-18T07:43:32.176Z,19.00
2018-10-18T07:44:32.165Z,18.10
2018-10-18T07:45:32.183Z,18.50
2018-10-18T07:46:32.149Z,18.10
2018-10-18T07:47:32.129Z,18.40
2018-10-18T07:48:32.118Z,17.90
2018-10-18T07:49:32.107Z,17.50
2018-10-18T07:50:32.197Z,18.20
2018-10-18T07:51:32.083Z,17.40
2018-10-18T07:52:32.071Z,17.60
2018-10-18T07:53:32.162Z,18.20
2018-10-18T07:54:32.054Z,16.90
2018-10-18T07:55:32.072Z,17.00
2018-10-18T07:56:32.031Z,16.60
2018-10-18T07:57:32.021Z,16.70
2018-10-18T07:58:32.029Z,16.80
2018-10-18T07:59:32.002Z,17.40
2018-10-18T08:00:32.110Z,16.50
2018-10-18T08:01:32.002Z,16.40
2018-10-18T08:02:31.964Z,16.50
2018-10-18T08:03:31.982Z,18.00
2018-10-18T08:04:31.941Z,16.10
2018-10-18T08:05:31.931Z,16.80
2018-10-18T08:06:32.012Z,16.60
2018-10-18T08:07:31.931Z,16.00
2018-10-18T08:08:31.900Z,16.70
2018-10-18T08:09:31.940Z,16.80
2018-10-18T08:10:31.874Z,16.10
2018-10-18T08:11:31.896Z,15.70
2018-10-18T08:12:31.969Z,16.00
2018-10-18T08:13:31.849Z,16.50
2018-10-18T08:14:31.830Z,15.60
2018-10-18T08:15:31.825Z,14.80
2018-10-18T08:16:31.810Z,15.80
2018-10-18T08:17:32.040Z,15.20
2018-10-18T08:18:31.789Z,16.00
2018-10-18T08:19:31.776Z,16.10
2018-10-18T08:20:31.758Z,15.40
2018-10-18T08:21:31.749Z,15.60
2018-10-18T08:22:31.777Z,14.80
2018-10-18T08:23:31.733Z,15.30
2018-10-18T08:24:31.756Z,13.80
2018-10-18T08:25:31.704Z,14.80
2018-10-18T08:26:31.695Z,15.10
2018-10-18T08:27:31.684Z,14.40
2018-10-18T08:28:31.674Z,14.80
2018-10-18T08:29:31.712Z,14.70
2018-10-18T08:30:31.669Z,15.10
2018-10-18T08:31:31.653Z,14.20
2018-10-18T08:32:31.621Z,15.10
2018-10-18T08:33:31.612Z,16.20
2018-10-18T08:34:31.659Z,14.60
2018-10-18T08:35:31.603Z,14.00
2018-10-18T08:36:31.583Z,14.70
2018-10-18T08:37:31.660Z,13.80
2018-10-18T08:38:31.557Z,14.30
2018-10-18T08:39:31.583Z,14.50
2018-10-18T08:40:31.552Z,14.70
2018-10-18T08:41:31.558Z,14.00
2018-10-18T08:42:31.534Z,13.80
2018-10-18T08:43:31.505Z,13.60
2018-10-18T08:44:31.519Z,13.10
2018-10-18T08:45:31.491Z,12.90
2018-10-18T08:46:31.571Z,13.50
2018-10-18T08:47:31.479Z,13.70
2018-10-18T08:48:31.509Z,12.90
2018-10-18T08:49:31.438Z,13.40
2018-10-18T08:50:31.423Z,13.20
2018-10-18T08:51:31.417Z,12.60
2018-10-18T08:52:31.410Z,13.10
2018-10-18T08:53:31.428Z,12.70
2018-10-18T08:54:31.380Z,12.80
2018-10-18T08:55:31.397Z,13.40
2018-10-18T08:56:31.418Z,13.00
2018-10-18T08:57:31.348Z,13.00
2018-10-18T08:58:31.341Z,12.30
2018-10-18T08:59:31.340Z,12.20
2018-10-18T09:00:31.313Z,12.60
2018-10-18T09:01:31.343Z,12.90
2018-10-18T09:02:31.301Z,12.70
2018-10-18T09:03:31.279Z,13.20
2018-10-18T09:04:31.273Z,12.30
2018-10-18T09:05:31.275Z,12.60
2018-10-18T09:06:31.279Z,12.00
2018-10-18T09:07:31.246Z,13.10
2018-10-18T09:08:31.228Z,13.50
2018-10-18T09:09:31.219Z,12.70
2018-10-18T09:10:31.221Z,13.70
2018-10-18T09:11:31.231Z,13.40
2018-10-18T09:12:31.214Z,12.80
2018-10-18T09:13:31.289Z,13.50
2018-10-18T09:14:31.160Z,13.20
2018-10-18T09:15:31.145Z,13.30
2018-10-18T09:16:31.137Z,13.10
2018-10-18T09:17:31.126Z,12.70
2018-10-18T09:18:31.148Z,11.70
2018-10-18T09:19:31.105Z,11.50
2018-10-18T09:20:31.102Z,11.30
2018-10-18T09:21:31.115Z,10.50
2018-10-18T09:22:31.072Z,10.00
2018-10-18T09:23:31.065Z,10.20
2018-10-18T09:24:31.047Z,9.90
2018-10-18T09:25:31.038Z,9.80
2018-10-18T09:26:31.051Z,9.50
2018-10-18T09:27:31.051Z,9.90
2018-10-18T09:28:31.003Z,9.30
2018-10-18T09:29:30.994Z,8.30
2018-10-18T09:30:31.033Z,8.50
2018-10-18T09:31:31.011Z,9.00
2018-10-18T09:32:30.964Z,8.80
2018-10-18T09:33:30.948Z,7.90
2018-10-18T09:34:30.981Z,7.50
2018-10-18T09:35:30.933Z,7.90
2018-10-18T09:36:30.920Z,8.00
2018-10-18T09:37:30.910Z,7.70
2018-10-18T09:38:31.049Z,7.80
2018-10-18T09:39:30.884Z,6.90
2018-10-18T09:40:30.872Z,7.50
2018-10-18T09:41:30.861Z,7.70
2018-10-18T09:42:30.849Z,7.90
2018-10-18T09:43:30.890Z,7.30
2018-10-18T09:44:30.932Z,6.40
2018-10-18T09:45:30.893Z,7.20
2018-10-18T09:46:30.816Z,7.40
2018-10-18T09:47:30.798Z,7.20
2018-10-18T09:48:30.832Z,6.80
2018-10-18T09:49:30.811Z,6.90
2018-10-18T09:50:30.790Z,6.80
2018-10-18T09:51:30.752Z,6.30
2018-10-18T09:52:30.742Z,6.10
2018-10-18T09:53:30.764Z,6.10
2018-10-18T09:54:30.754Z,6.60
2018-10-18T09:55:30.720Z,6.70
2018-10-18T09:56:30.700Z,7.00
2018-10-18T09:57:30.682Z,7.00
2018-10-18T09:58:30.672Z,7.60
2018-10-18T09:59:30.703Z,6.10
2018-10-18T10:00:30.662Z,6.80
2018-10-18T10:01:30.644Z,6.40
2018-10-18T10:02:30.633Z,6.60
2018-10-18T10:03:30.621Z,6.50
2018-10-18T10:04:30.657Z,6.30
2018-10-18T10:05:30.600Z,6.30
2018-10-18T10:06:30.589Z,6.80
2018-10-18T10:07:30.583Z,6.20
2018-10-18T10:08:30.563Z,7.20
2018-10-18T10:09:30.611Z,6.90
2018-10-18T10:10:30.543Z,7.10
2018-10-18T10:11:30.579Z,7.10
2018-10-18T10:12:30.579Z,6.60
2018-10-18T10:13:30.577Z,6.10
2018-10-18T10:14:30.499Z,6.10
2018-10-18T10:15:30.492Z,5.80
2018-10-18T10:16:30.516Z,33.10
2018-10-18T10:17:30.519Z,139.90
2018-10-18T10:18:30.463Z,45.60
2018-10-18T10:19:30.442Z,17.30
2018-10-18T10:20:30.468Z,9.70
2018-10-18T10:21:30.420Z,7.80
2018-10-18T10:22:30.405Z,5.80
2018-10-18T10:23:30.409Z,6.00
2018-10-18T10:24:30.422Z,5.90
2018-10-18T10:25:30.439Z,6.00
2018-10-18T10:26:30.369Z,5.60
2018-10-18T10:27:30.355Z,5.80
2018-10-18T10:28:30.360Z,5.70
2018-10-18T10:29:30.327Z,5.50
2018-10-18T10:30:30.425Z,5.50
2018-10-18T10:31:30.311Z,5.60
2018-10-18T10:32:30.303Z,5.50
2018-10-18T10:33:30.356Z,4.80
2018-10-18T10:34:30.293Z,5.00
2018-10-18T10:35:30.328Z,5.40
2018-10-18T10:36:30.256Z,5.00
2018-10-18T10:37:30.249Z,4.70
2018-10-18T10:38:30.277Z,4.80
2018-10-18T10:39:30.219Z,5.10
2018-10-18T10:40:30.222Z,4.90
2018-10-18T10:41:30.399Z,5.20
2018-10-18T10:42:30.216Z,5.40
2018-10-18T10:43:30.194Z,5.70
2018-10-18T10:44:30.199Z,5.40
2018-10-18T10:45:30.209Z,4.90
2018-10-18T10:46:30.283Z,5.60
2018-10-18T10:47:30.133Z,34.30
2018-10-18T10:48:30.128Z,112.10
2018-10-18T10:49:30.972Z,20.00
2018-10-18T10:50:30.105Z,17.10
2018-10-18T10:51:30.145Z,6.70
2018-10-18T10:52:30.087Z,5.60
2018-10-18T10:53:30.065Z,5.20
2018-10-18T10:54:30.058Z,5.40
2018-10-18T10:55:30.047Z,5.00
2018-10-18T10:56:30.077Z,5.40
2018-10-18T10:57:30.029Z,5.20
2018-10-18T10:58:30.014Z,4.90
2018-10-18T10:59:30.007Z,5.30
2018-10-18T11:00:30.012Z,5.50
2018-10-18T11:01:30.014Z,5.40
2018-10-18T11:02:30.006Z,5.30
2018-10-18T11:03:29.964Z,5.60
2018-10-18T11:04:29.968Z,5.60
2018-10-18T11:05:29.939Z,7.00
2018-10-18T11:06:29.929Z,6.20
2018-10-18T11:07:29.917Z,6.00
2018-10-18T11:08:29.940Z,5.80
2018-10-18T11:09:30.049Z,5.70
2018-10-18T11:10:29.884Z,5.60
2018-10-18T11:11:29.879Z,6.10
2018-10-18T11:12:30.004Z,5.80
2018-10-18T11:13:29.895Z,5.90
2018-10-18T11:14:29.840Z,5.60
2018-10-18T11:15:29.832Z,5.90
2018-10-18T11:16:29.825Z,5.50
2018-10-18T11:17:29.808Z,5.60
2018-10-18T11:18:29.839Z,5.80
2018-10-18T11:19:29.780Z,5.80
2018-10-18T11:20:29.776Z,6.00
2018-10-18T11:21:29.837Z,5.30
2018-10-18T11:22:29.751Z,5.80
2018-10-18T11:23:29.777Z,5.60
2018-10-18T11:24:29.757Z,5.50
2018-10-18T11:25:29.724Z,5.50
2018-10-18T11:26:29.745Z,5.80
2018-10-18T11:27:29.733Z,5.30
2018-10-18T11:28:29.723Z,5.60
2018-10-18T11:29:29.672Z,5.10
2018-10-18T11:30:29.667Z,4.60
2018-10-18T11:31:29.657Z,4.80
2018-10-18T11:32:29.717Z,4.80
2018-10-18T11:33:29.631Z,3.80
2018-10-18T11:34:29.700Z,4.30
2018-10-18T11:35:29.646Z,4.20
2018-10-18T11:36:29.602Z,4.10
2018-10-18T11:37:29.591Z,3.60
2018-10-18T11:38:29.585Z,3.80
2018-10-18T11:39:29.566Z,3.90
2018-10-18T11:40:29.593Z,3.60
2018-10-18T11:41:29.546Z,4.00
2018-10-18T11:42:29.589Z,4.50
2018-10-18T11:43:29.536Z,3.80
2018-10-18T11:44:29.550Z,3.80
2018-10-18T11:45:29.617Z,3.90
2018-10-18T11:46:29.522Z,3.60
2018-10-18T11:47:29.482Z,3.80
2018-10-18T11:48:29.480Z,3.40
2018-10-18T11:49:29.463Z,3.40
2018-10-18T11:50:29.477Z,3.30
2018-10-18T11:51:29.460Z,3.00
2018-10-18T11:52:29.446Z,3.00
2018-10-18T11:53:29.412Z,3.10
2018-10-18T11:54:29.440Z,3.10
2018-10-18T11:55:29.390Z,3.10
2018-10-18T11:56:29.375Z,3.50
2018-10-18T11:57:29.365Z,3.20
2018-10-18T11:58:29.353Z,3.80
2018-10-18T11:59:29.377Z,3.60
2018-10-18T12:00:29.334Z,4.00
2018-10-18T12:01:29.454Z,4.10
2018-10-18T12:02:29.345Z,27.30
2018-10-18T12:03:29.297Z,27.60
2018-10-18T12:04:29.335Z,19.10
2018-10-18T12:05:29.279Z,13.30
2018-10-18T12:06:29.268Z,10.10
2018-10-18T12:07:29.292Z,6.40
2018-10-18T12:08:29.243Z,6.00
2018-10-18T12:09:29.249Z,7.00
2018-10-18T12:10:29.236Z,6.40
2018-10-18T12:11:29.215Z,5.70
2018-10-18T12:12:29.236Z,7.30
2018-10-18T12:13:29.189Z,6.40
2018-10-18T12:14:29.227Z,5.90
2018-10-18T12:15:29.171Z,5.50
2018-10-18T12:16:29.164Z,5.00
2018-10-18T12:17:29.141Z,5.20
2018-10-18T12:18:29.134Z,4.60
2018-10-18T12:19:29.258Z,5.50
2018-10-18T12:20:29.120Z,5.10
2018-10-18T12:21:29.100Z,5.10
2018-10-18T12:22:29.097Z,4.70
2018-10-18T12:23:29.083Z,4.50
2018-10-18T12:24:29.108Z,4.60
2018-10-18T12:25:29.170Z,4.40
2018-10-18T12:26:29.051Z,4.40
2018-10-18T12:27:29.036Z,4.10
2018-10-18T12:28:29.022Z,4.40
2018-10-18T12:29:29.067Z,4.00
2018-10-18T12:30:29.003Z,4.40
2018-10-18T12:31:28.988Z,4.40
2018-10-18T12:32:28.982Z,4.60
2018-10-18T12:33:28.984Z,3.90
2018-10-18T12:34:28.985Z,4.40
2018-10-18T12:35:28.953Z,23.20
2018-10-18T12:36:28.949Z,15.50
2018-10-18T12:37:28.929Z,23.30
2018-10-18T12:38:28.924Z,13.50
2018-10-18T12:39:29.289Z,30.40
2018-10-18T12:40:29.015Z,10.10
2018-10-18T12:41:29.015Z,8.90
2018-10-18T12:42:28.874Z,6.40
2018-10-18T12:43:28.883Z,5.20
2018-10-18T12:44:28.845Z,5.50
2018-10-18T12:45:28.843Z,5.00
2018-10-18T12:46:28.836Z,4.90
2018-10-18T12:47:28.843Z,5.50
2018-10-18T12:48:28.909Z,5.00
2018-10-18T12:49:28.794Z,5.60
2018-10-18T12:50:28.815Z,6.30
2018-10-18T12:51:28.797Z,6.40
2018-10-18T12:52:28.765Z,6.50
2018-10-18T12:53:28.745Z,6.10
2018-10-18T12:54:28.778Z,6.40
2018-10-18T12:55:28.726Z,5.60
2018-10-18T12:56:28.740Z,6.20
2018-10-18T12:57:29.502Z,6.40
2018-10-18T12:58:28.694Z,6.10